National Weather Service Raw Text Product

Displaying AFOS PIL: TAFOTM Received: 2017-08-13 17:20 UTC


491 
FTUS43 KDMX 131720
TAFOTM
TAF
KOTM 131720Z 1318/1418 16006KT P6SM SKC
     FM140900 15004KT P6SM BKN090=